Time;durP1;ratioP1;P1;durP2;ratioP2;P2;SDS_P1;SDS_P2;PMS_P1;PMS_P2;Temp;Humidity;BMP_temperature;BMP_pressure;BME280_temperature;BME280_humidity;BME280_pressure;Samples;Min_cycle;Max_cycle;Signal;HPM_P1;HPM_P2
2023/01/22 00:02:22;;;;;;;0.70;0.70;;;-5.40;99.90;;;;;;5078194;28;20215;-84
2023/01/22 00:04:48;;;;;;;0.73;0.73;;;-5.40;99.90;;;;;;5079397;28;20192;-86
2023/01/22 00:07:14;;;;;;;0.80;0.80;;;-5.50;99.90;;;;;;5094322;28;20188;-85
2023/01/22 00:09:43;;;;;;;0.77;0.77;;;-5.40;99.90;;;;;;5079918;28;20200;-84
2023/01/22 00:12:09;;;;;;;0.90;0.90;;;-5.40;99.90;;;;;;5097916;28;20261;-82
2023/01/22 00:14:35;;;;;;;0.90;0.90;;;-5.40;99.90;;;;;;5083137;28;20212;-85
2023/01/22 00:17:01;;;;;;;0.80;0.80;;;-5.50;99.90;;;;;;5059790;28;20562;-85
2023/01/22 00:19:27;;;;;;;1.13;1.13;;;-5.50;99.90;;;;;;5059484;28;20201;-85
2023/01/22 00:21:53;;;;;;;0.80;0.80;;;-5.50;99.90;;;;;;5060001;28;20200;-85
2023/01/22 00:24:18;;;;;;;0.80;0.80;;;-5.50;99.90;;;;;;5059730;28;20200;-82
2023/01/22 00:26:44;;;;;;;0.70;0.70;;;-5.50;99.90;;;;;;5059160;28;20236;-85
2023/01/22 00:29:11;;;;;;;1.13;1.03;;;-5.50;99.90;;;;;;5059413;28;20209;-86
2023/01/22 00:31:37;;;;;;;0.80;0.80;;;-5.60;99.90;;;;;;5059354;28;20205;-86
2023/01/22 00:34:03;;;;;;;0.80;0.80;;;-5.60;99.90;;;;;;5060007;28;20296;-84
2023/01/22 00:36:29;;;;;;;0.80;0.80;;;-5.60;99.90;;;;;;5059795;28;20642;-87
2023/01/22 00:38:54;;;;;;;0.90;0.90;;;-5.80;99.90;;;;;;5059335;28;20291;-84
2023/01/22 00:41:20;;;;;;;0.80;0.80;;;-5.80;99.90;;;;;;5076844;28;20232;-83
2023/01/22 00:43:46;;;;;;;0.90;0.90;;;-5.70;99.90;;;;;;5077599;28;20679;-84
2023/01/22 00:46:14;;;;;;;0.70;0.70;;;-5.70;99.90;;;;;;5078535;28;20205;-84
2023/01/22 00:48:40;;;;;;;0.70;0.70;;;-5.80;99.90;;;;;;5066235;28;20207;-86
2023/01/22 00:51:08;;;;;;;0.90;0.90;;;-5.80;99.90;;;;;;5080298;28;20200;-85
2023/01/22 00:53:36;;;;;;;0.80;0.80;;;-5.70;99.90;;;;;;5080144;28;20239;-86
2023/01/22 00:56:02;;;;;;;0.80;0.80;;;-5.80;99.90;;;;;;5098125;28;20196;-86
2023/01/22 00:58:29;;;;;;;0.90;0.90;;;-5.80;99.90;;;;;;5079758;28;20233;-88
2023/01/22 01:00:55;;;;;;;1.57;1.47;;;-5.80;99.90;;;;;;5078805;28;20214;-86
2023/01/22 01:03:30;;;;;;;0.90;0.90;;;-5.80;99.90;;;;;;5097963;28;20192;-88
2023/01/22 01:06:01;;;;;;;0.80;0.80;;;-5.80;99.90;;;;;;5099691;28;20221;-85
2023/01/22 01:08:29;;;;;;;0.83;0.83;;;-5.90;99.90;;;;;;5079886;28;20230;-87
2023/01/22 01:10:56;;;;;;;0.70;0.70;;;-5.90;99.90;;;;;;5098708;28;20196;-88
2023/01/22 01:13:23;;;;;;;0.77;0.77;;;-5.90;99.90;;;;;;5077228;28;20196;-86
2023/01/22 01:15:49;;;;;;;0.70;0.70;;;-5.90;99.90;;;;;;5079288;28;20184;-88
2023/01/22 01:18:16;;;;;;;0.80;0.80;;;-5.90;99.90;;;;;;5069858;28;20201;-89
2023/01/22 01:20:41;;;;;;;0.70;0.70;;;-5.90;99.90;;;;;;5080688;28;20192;-88
2023/01/22 01:23:07;;;;;;;0.77;0.77;;;-5.80;99.90;;;;;;5083009;28;20211;-87
2023/01/22 01:25:33;;;;;;;0.80;0.80;;;-5.90;99.90;;;;;;5083633;28;20313;-85
2023/01/22 01:27:59;;;;;;;0.80;0.80;;;-5.90;99.90;;;;;;5104033;28;20666;-86
2023/01/22 01:30:25;;;;;;;0.70;0.70;;;-6.00;99.90;;;;;;5086405;28;20670;-86
2023/01/22 01:32:50;;;;;;;1.67;1.57;;;-5.90;99.90;;;;;;5104844;28;20204;-86
2023/01/22 01:35:18;;;;;;;0.80;0.80;;;-6.00;99.90;;;;;;5084768;28;20192;-85
2023/01/22 01:37:43;;;;;;;0.80;0.80;;;-6.00;99.90;;;;;;5081149;28;20191;-85
2023/01/22 01:40:11;;;;;;;1.10;1.10;;;-5.90;99.90;;;;;;5098167;28;20232;-86
2023/01/22 01:42:40;;;;;;;0.80;0.80;;;-5.80;99.90;;;;;;5079244;28;20200;-86
2023/01/22 01:45:26;;;;;;;0.80;0.80;;;-5.80;99.90;;;;;;5079552;28;20193;-87
2023/01/22 01:48:04;;;;;;;0.87;0.87;;;-5.80;99.90;;;;;;5081994;28;20256;-88
2023/01/22 01:50:30;;;;;;;0.80;0.80;;;-5.90;99.90;;;;;;5081833;28;20207;-86
2023/01/22 01:52:59;;;;;;;0.80;0.80;;;-5.90;99.90;;;;;;5061350;28;20209;-85
2023/01/22 01:55:29;;;;;;;0.80;0.80;;;-5.80;99.90;;;;;;5058814;28;20697;-86
2023/01/22 01:58:03;;;;;;;0.80;0.80;;;-5.80;99.90;;;;;;5060483;28;20251;-85
2023/01/22 02:00:32;;;;;;;0.80;0.80;;;-5.90;99.90;;;;;;5060625;28;20296;-74
2023/01/22 02:02:59;;;;;;;1.00;1.00;;;-6.00;99.90;;;;;;5056747;28;20701;-75
2023/01/22 02:05:29;;;;;;;0.80;0.80;;;-6.00;99.90;;;;;;5127739;22;20242;-74
2023/01/22 02:07:55;;;;;;;0.80;0.80;;;-6.00;99.90;;;;;;5115272;28;20187;-75
2023/01/22 02:10:21;;;;;;;0.80;0.80;;;-6.00;99.90;;;;;;5114878;28;20198;-74
2023/01/22 02:12:47;;;;;;;1.00;1.00;;;-6.00;99.90;;;;;;5114927;28;20203;-77
2023/01/22 02:15:12;;;;;;;0.80;0.80;;;-6.00;99.90;;;;;;5115103;28;20202;-75
2023/01/22 02:17:39;;;;;;;0.80;0.80;;;-6.00;99.90;;;;;;5114599;28;20195;-76
2023/01/22 02:20:05;;;;;;;0.80;0.80;;;-6.10;99.90;;;;;;5114704;28;20240;-77
2023/01/22 02:22:35;;;;;;;0.70;0.70;;;-6.10;99.90;;;;;;5094881;28;20658;-76
2023/01/22 02:25:01;;;;;;;0.80;0.80;;;-6.10;99.90;;;;;;5093140;28;20192;-76
2023/01/22 02:27:27;;;;;;;0.80;0.80;;;-6.10;99.90;;;;;;5094659;28;20195;-76
2023/01/22 02:29:53;;;;;;;0.90;0.90;;;-6.10;99.90;;;;;;5109688;28;20283;-77
2023/01/22 02:32:19;;;;;;;0.80;0.80;;;-6.10;99.90;;;;;;5092793;28;20192;-76
2023/01/22 02:34:45;;;;;;;1.00;1.00;;;-6.10;99.90;;;;;;5093054;28;20235;-76
2023/01/22 02:37:11;;;;;;;0.80;0.80;;;-6.10;99.90;;;;;;5093049;28;20194;-74
2023/01/22 02:39:37;;;;;;;0.90;0.90;;;-6.10;99.90;;;;;;5093959;28;20566;-74
2023/01/22 02:42:04;;;;;;;0.80;0.80;;;-6.10;99.90;;;;;;5113049;28;20191;-75
2023/01/22 02:44:30;;;;;;;0.90;0.90;;;-6.10;99.90;;;;;;5113388;28;20289;-75
2023/01/22 02:46:56;;;;;;;0.80;0.80;;;-6.10;99.90;;;;;;5114450;28;20271;-75
2023/01/22 02:49:22;;;;;;;0.90;0.90;;;-6.00;99.90;;;;;;5112604;28;20200;-75
2023/01/22 02:51:48;;;;;;;0.80;0.80;;;-6.00;99.90;;;;;;5112755;28;20262;-75
2023/01/22 02:54:13;;;;;;;0.80;0.80;;;-6.00;99.90;;;;;;5112857;28;20275;-75
2023/01/22 02:56:39;;;;;;;2.47;1.20;;;-6.00;99.90;;;;;;5113862;28;20680;-75
2023/01/22 02:59:05;;;;;;;0.80;0.80;;;-6.10;99.90;;;;;;5113899;28;20195;-75
2023/01/22 03:01:31;;;;;;;1.13;1.13;;;-6.10;99.90;;;;;;5112996;28;20187;-76
2023/01/22 03:04:00;;;;;;;0.97;0.97;;;-6.10;99.90;;;;;;5113820;28;20276;-76
2023/01/22 03:06:28;;;;;;;0.90;0.90;;;-6.10;99.90;;;;;;5113738;28;20192;-77
2023/01/22 03:08:55;;;;;;;0.80;0.80;;;-6.10;99.90;;;;;;5114065;28;20191;-76
2023/01/22 03:11:21;;;;;;;0.80;0.80;;;-6.10;99.90;;;;;;5114066;28;20278;-77
2023/01/22 03:22:00;;;;;;;0.90;0.90;;;-6.20;99.90;;;;;;5114251;28;20238;-77
2023/01/22 03:24:26;;;;;;;0.80;0.80;;;-6.10;99.90;;;;;;5113645;28;20191;-75
2023/01/22 03:26:52;;;;;;;0.80;0.80;;;-6.20;99.90;;;;;;5112088;28;20195;-74
2023/01/22 03:29:18;;;;;;;0.70;0.70;;;-6.20;99.90;;;;;;5100552;28;20666;-75
2023/01/22 03:31:47;;;;;;;0.90;0.90;;;-6.20;99.90;;;;;;5091896;28;20203;-75
2023/01/22 03:34:14;;;;;;;1.80;1.47;;;-6.20;99.90;;;;;;5093497;28;20211;-75
2023/01/22 03:36:41;;;;;;;0.80;0.80;;;-6.10;99.90;;;;;;5093504;28;20271;-75
2023/01/22 03:39:06;;;;;;;0.83;0.83;;;-6.10;99.90;;;;;;5113861;28;20585;-75
2023/01/22 03:41:32;;;;;;;0.80;0.80;;;-6.20;99.90;;;;;;5114351;28;20317;-75
2023/01/22 03:44:00;;;;;;;0.87;0.87;;;-6.30;99.90;;;;;;5117883;28;20199;-75
2023/01/22 03:46:26;;;;;;;0.80;0.80;;;-6.30;99.90;;;;;;5117725;28;20192;-75
2023/01/22 03:48:52;;;;;;;0.80;0.80;;;-6.30;99.90;;;;;;5116781;28;20199;-74
2023/01/22 03:51:18;;;;;;;0.80;0.80;;;-6.30;99.90;;;;;;5117595;28;20274;-75
2023/01/22 03:53:45;;;;;;;0.90;0.90;;;-6.30;99.90;;;;;;5116555;28;20653;-75
2023/01/22 03:56:18;;;;;;;1.00;1.00;;;-6.30;99.90;;;;;;5117859;28;20244;-75
2023/01/22 03:58:43;;;;;;;0.80;0.80;;;-6.30;99.90;;;;;;5116442;28;20307;-75
2023/01/22 04:01:15;;;;;;;0.80;0.80;;;-6.20;99.90;;;;;;5115216;28;20199;-75
2023/01/22 04:03:41;;;;;;;0.73;0.73;;;-6.20;99.90;;;;;;5107650;28;20592;-75
2023/01/22 04:06:10;;;;;;;1.13;1.13;;;-6.20;99.90;;;;;;5117405;28;20210;-76
2023/01/22 04:08:38;;;;;;;0.80;0.80;;;-6.20;99.90;;;;;;5115830;28;20241;-75
2023/01/22 04:11:04;;;;;;;6.13;2.97;;;-6.10;99.90;;;;;;5117435;28;20282;-75
2023/01/22 04:13:32;;;;;;;0.90;0.90;;;-6.10;99.90;;;;;;5117549;28;20205;-75
2023/01/22 04:15:57;;;;;;;0.83;0.83;;;-6.10;99.90;;;;;;5116147;28;20324;-76
2023/01/22 04:18:23;;;;;;;1.33;1.23;;;-6.10;99.90;;;;;;5116927;28;20686;-76
2023/01/22 04:20:50;;;;;;;0.90;0.90;;;-6.10;99.90;;;;;;5117328;28;20666;-76
2023/01/22 04:23:16;;;;;;;0.80;0.80;;;-6.20;99.90;;;;;;5117298;28;20199;-76
2023/01/22 04:25:43;;;;;;;0.80;0.80;;;-6.20;99.90;;;;;;5115578;28;20195;-76
2023/01/22 04:28:13;;;;;;;0.80;0.80;;;-6.20;99.90;;;;;;5117008;28;20195;-77
2023/01/22 04:30:39;;;;;;;0.80;0.80;;;-6.20;99.90;;;;;;5116991;28;20202;-77
2023/01/22 04:33:06;;;;;;;0.80;0.80;;;-6.20;99.90;;;;;;5114499;28;20272;-76
2023/01/22 04:35:36;;;;;;;0.83;0.83;;;-6.20;99.90;;;;;;5116940;28;20199;-77
2023/01/22 04:38:02;;;;;;;0.73;0.73;;;-6.20;99.90;;;;;;5117041;28;20191;-77
2023/01/22 04:40:28;;;;;;;0.77;0.77;;;-6.20;99.90;;;;;;5116127;27;20279;-77
2023/01/22 04:42:54;;;;;;;0.80;0.80;;;-6.10;99.90;;;;;;5116884;28;20278;-77
2023/01/22 04:45:19;;;;;;;0.70;0.70;;;-6.10;99.90;;;;;;5116691;28;20192;-76
2023/01/22 04:47:47;;;;;;;0.70;0.70;;;-6.10;99.90;;;;;;5116966;28;20199;-77
2023/01/22 04:50:18;;;;;;;0.70;0.70;;;-6.20;99.90;;;;;;5115576;28;20258;-77
2023/01/22 04:52:44;;;;;;;0.80;0.80;;;-6.20;99.90;;;;;;5097930;28;20238;-76
2023/01/22 04:55:11;;;;;;;0.80;0.80;;;-6.20;99.90;;;;;;5114877;28;20231;-76
2023/01/22 04:57:37;;;;;;;0.90;0.90;;;-6.10;99.90;;;;;;5116257;28;20188;-76
2023/01/22 05:00:05;;;;;;;0.80;0.80;;;-6.00;99.90;;;;;;5116531;28;20192;-76
2023/01/22 05:02:31;;;;;;;0.80;0.80;;;-6.00;99.90;;;;;;5116215;28;20196;-76
2023/01/22 05:04:56;;;;;;;1.40;1.10;;;-6.00;99.90;;;;;;5116094;28;20306;-75
2023/01/22 05:07:22;;;;;;;0.90;0.90;;;-5.90;99.90;;;;;;5116357;28;20353;-75
2023/01/22 05:09:48;;;;;;;0.70;0.70;;;-5.90;99.90;;;;;;5116414;28;20202;-76
2023/01/22 05:12:14;;;;;;;0.80;0.80;;;-5.90;99.90;;;;;;5116539;28;20191;-76
2023/01/22 05:14:39;;;;;;;0.80;0.80;;;-6.00;99.90;;;;;;5114699;28;20682;-76
2023/01/22 05:17:05;;;;;;;0.80;0.80;;;-6.00;99.90;;;;;;5116003;28;20203;-77
2023/01/22 05:19:31;;;;;;;0.80;0.80;;;-6.00;99.90;;;;;;5114257;28;20645;-76
2023/01/22 05:21:57;;;;;;;0.80;0.80;;;-6.00;99.90;;;;;;5116256;28;20230;-76
2023/01/22 05:24:22;;;;;;;0.80;0.80;;;-6.00;99.90;;;;;;5115783;27;20278;-76
2023/01/22 05:26:48;;;;;;;0.80;0.80;;;-6.00;99.90;;;;;;5116060;28;20191;-76
2023/01/22 05:29:14;;;;;;;0.70;0.70;;;-6.10;99.90;;;;;;5115859;28;20562;-76
2023/01/22 05:31:40;;;;;;;0.80;0.80;;;-6.10;99.90;;;;;;5114531;28;20632;-76
2023/01/22 05:34:07;;;;;;;0.80;0.80;;;-6.10;99.90;;;;;;5115592;28;20669;-76
2023/01/22 05:36:33;;;;;;;0.80;0.80;;;-6.20;99.90;;;;;;5115240;28;20213;-76
2023/01/22 05:38:58;;;;;;;0.80;0.80;;;-6.20;99.90;;;;;;5115872;28;20263;-76
2023/01/22 05:41:24;;;;;;;0.80;0.80;;;-6.10;99.90;;;;;;5114071;28;20196;-76
2023/01/22 05:43:50;;;;;;;0.87;0.87;;;-6.00;99.90;;;;;;5115690;28;20234;-76
2023/01/22 05:46:15;;;;;;;0.80;0.80;;;-6.00;99.90;;;;;;5114350;28;20203;-76
2023/01/22 05:48:41;;;;;;;0.73;0.73;;;-6.10;99.90;;;;;;5115466;28;20210;-77
2023/01/22 05:51:08;;;;;;;1.93;1.83;;;-6.10;99.90;;;;;;5115450;28;20274;-76
2023/01/22 05:53:35;;;;;;;0.90;0.90;;;-6.10;99.90;;;;;;5115268;28;20195;-76
2023/01/22 05:56:05;;;;;;;0.80;0.80;;;-6.10;99.90;;;;;;5115465;28;20198;-76
2023/01/22 05:58:32;;;;;;;0.80;0.80;;;-6.20;99.90;;;;;;5113439;28;20722;-77
2023/01/22 06:00:58;;;;;;;0.80;0.80;;;-6.20;99.90;;;;;;5115550;28;20200;-76
2023/01/22 06:03:24;;;;;;;0.80;0.80;;;-6.20;99.90;;;;;;5113656;28;20199;-76
2023/01/22 06:06:16;;;;;;;0.90;0.90;;;-6.30;99.90;;;;;;5112893;28;20292;-76
2023/01/22 06:08:41;;;;;;;0.80;0.80;;;-6.30;99.90;;;;;;5110496;28;20214;-76
2023/01/22 06:11:12;;;;;;;0.90;0.90;;;-6.30;99.90;;;;;;5115207;28;20192;-76
2023/01/22 06:13:38;;;;;;;0.90;0.90;;;-6.30;99.90;;;;;;5106994;28;20250;-76
2023/01/22 06:16:05;;;;;;;0.90;0.90;;;-6.30;99.90;;;;;;5094800;28;20200;-76
2023/01/22 06:18:31;;;;;;;6.23;2.00;;;-6.30;99.90;;;;;;5094201;28;20199;-76
2023/01/22 06:20:58;;;;;;;0.83;0.83;;;-6.30;99.90;;;;;;5098358;28;20551;-77
2023/01/22 06:23:26;;;;;;;0.80;0.80;;;-6.30;99.90;;;;;;5114743;28;20569;-77
2023/01/22 06:25:56;;;;;;;0.70;0.70;;;-6.30;99.90;;;;;;5114666;28;20190;-76
2023/01/22 06:28:23;;;;;;;0.80;0.80;;;-6.30;99.90;;;;;;5114772;28;20247;-77
2023/01/22 06:30:52;;;;;;;0.80;0.80;;;-6.20;99.90;;;;;;5114779;28;20234;-77
2023/01/22 06:33:18;;;;;;;0.90;0.90;;;-6.20;99.90;;;;;;5114446;28;20242;-76
2023/01/22 06:35:44;;;;;;;0.90;0.90;;;-6.20;99.90;;;;;;5114694;28;20233;-77
2023/01/22 06:38:09;;;;;;;0.70;0.70;;;-6.20;99.90;;;;;;5114582;28;20555;-76
2023/01/22 06:40:35;;;;;;;0.70;0.70;;;-6.20;99.90;;;;;;5114363;28;20214;-76
2023/01/22 06:43:07;;;;;;;0.80;0.80;;;-6.20;99.90;;;;;;5114702;28;20203;-77
2023/01/22 06:45:33;;;;;;;0.80;0.80;;;-6.20;99.90;;;;;;5114072;28;20195;-77
2023/01/22 06:47:59;;;;;;;0.87;0.87;;;-6.30;99.90;;;;;;5114198;28;20198;-76
2023/01/22 06:50:24;;;;;;;2.83;1.90;;;-6.30;99.90;;;;;;5114171;28;20244;-76
2023/01/22 06:52:50;;;;;;;0.80;0.80;;;-6.20;99.90;;;;;;5114458;28;20262;-77
2023/01/22 06:55:16;;;;;;;0.70;0.70;;;-6.20;99.90;;;;;;5114442;28;20198;-75
2023/01/22 06:57:42;;;;;;;0.70;0.70;;;-6.20;99.90;;;;;;5114182;28;20183;-74
2023/01/22 07:00:09;;;;;;;0.90;0.90;;;-6.10;99.90;;;;;;5114202;28;20271;-76
2023/01/22 07:02:35;;;;;;;0.70;0.70;;;-6.00;99.90;;;;;;5114002;28;20187;-77
2023/01/22 07:05:01;;;;;;;0.87;0.87;;;-5.90;99.90;;;;;;5114179;28;20234;-76
2023/01/22 07:07:27;;;;;;;0.80;0.80;;;-5.80;99.90;;;;;;5113888;28;20649;-76
2023/01/22 07:09:52;;;;;;;0.90;0.90;;;-5.70;99.90;;;;;;5114047;28;20199;-76
2023/01/22 07:12:18;;;;;;;0.70;0.70;;;-5.70;99.90;;;;;;5114156;28;20291;-76
2023/01/22 07:14:44;;;;;;;0.80;0.80;;;-5.70;99.90;;;;;;5112958;28;20230;-76
2023/01/22 07:17:09;;;;;;;0.80;0.80;;;-5.70;99.90;;;;;;5112190;28;20187;-75
2023/01/22 07:19:35;;;;;;;0.70;0.70;;;-5.80;99.90;;;;;;5111138;28;20199;-76
2023/01/22 07:22:01;;;;;;;0.70;0.70;;;-5.70;99.90;;;;;;5112301;28;20187;-76
2023/01/22 07:24:26;;;;;;;0.90;0.90;;;-5.70;99.90;;;;;;5110949;28;20799;-75
2023/01/22 07:26:52;;;;;;;0.70;0.70;;;-5.60;99.90;;;;;;5112258;28;20218;-76
2023/01/22 07:29:18;;;;;;;0.80;0.80;;;-5.60;99.90;;;;;;5110956;28;20590;-76
2023/01/22 07:31:46;;;;;;;0.80;0.80;;;-5.60;99.90;;;;;;5112442;28;20203;-76
2023/01/22 07:34:11;;;;;;;0.80;0.80;;;-5.60;99.90;;;;;;5111240;28;20203;-76
2023/01/22 07:36:37;;;;;;;0.93;0.83;;;-5.80;99.90;;;;;;5112249;28;20560;-76
2023/01/22 07:39:04;;;;;;;0.90;0.90;;;-5.90;99.90;;;;;;5112479;28;20191;-76
2023/01/22 07:41:30;;;;;;;0.80;0.80;;;-5.90;99.90;;;;;;5112182;28;20588;-75
2023/01/22 07:43:58;;;;;;;0.80;0.80;;;-5.90;99.90;;;;;;5112273;28;20282;-76
2023/01/22 07:46:24;;;;;;;0.80;0.80;;;-6.00;99.90;;;;;;5111731;28;20215;-75
2023/01/22 07:48:50;;;;;;;0.80;0.80;;;-6.00;99.90;;;;;;5111998;28;20187;-76
2023/01/22 07:51:16;;;;;;;0.90;0.90;;;-6.10;99.90;;;;;;5112101;28;20202;-75
2023/01/22 07:53:42;;;;;;;1.83;1.50;;;-6.00;99.90;;;;;;5111960;28;20203;-76
2023/01/22 07:56:07;;;;;;;0.80;0.80;;;-6.00;99.90;;;;;;5111420;28;20549;-76
2023/01/22 07:58:34;;;;;;;0.90;0.90;;;-6.00;99.90;;;;;;5112996;28;20203;-73
2023/01/22 08:00:59;;;;;;;0.80;0.80;;;-6.00;99.90;;;;;;5113461;28;20261;-72
2023/01/22 08:03:25;;;;;;;1.00;1.00;;;-5.90;99.90;;;;;;5111402;28;20200;-77
2023/01/22 08:05:51;;;;;;;0.80;0.80;;;-5.90;99.90;;;;;;5112870;28;20759;-76
2023/01/22 08:08:19;;;;;;;2.27;2.07;;;-5.90;99.90;;;;;;5113418;28;20228;-77
2023/01/22 08:10:45;;;;;;;2.20;1.83;;;-5.90;99.90;;;;;;5113263;28;20196;-76
2023/01/22 08:13:17;;;;;;;1.00;1.00;;;-5.90;99.90;;;;;;5112884;28;20207;-75
2023/01/22 08:15:44;;;;;;;2.93;1.87;;;-6.00;99.90;;;;;;5112712;28;20196;-76
2023/01/22 08:18:10;;;;;;;3.53;2.27;;;-6.00;99.90;;;;;;5117135;28;20187;-75
2023/01/22 08:20:36;;;;;;;1.27;1.23;;;-6.00;99.90;;;;;;5122451;28;20187;-76
2023/01/22 08:23:02;;;;;;;1.07;1.03;;;-6.00;99.90;;;;;;5113663;28;20222;-75
2023/01/22 08:25:28;;;;;;;0.80;0.80;;;-6.00;99.90;;;;;;5113416;28;20271;-75
2023/01/22 08:27:54;;;;;;;4.20;1.80;;;-5.90;99.90;;;;;;5113811;28;20195;-75
2023/01/22 08:30:20;;;;;;;0.80;0.80;;;-5.80;99.90;;;;;;5118040;28;20192;-73
2023/01/22 08:32:46;;;;;;;0.70;0.70;;;-5.70;99.90;;;;;;5118038;28;20266;-75
2023/01/22 08:35:12;;;;;;;0.80;0.80;;;-5.70;99.90;;;;;;5118205;28;20191;-73
2023/01/22 08:37:38;;;;;;;1.20;1.20;;;-5.70;99.90;;;;;;5121348;28;20207;-76
2023/01/22 08:40:05;;;;;;;0.80;0.80;;;-5.80;99.90;;;;;;5117226;28;20710;-75
2023/01/22 08:42:31;;;;;;;0.80;0.80;;;-5.80;99.90;;;;;;5116757;28;20199;-76
2023/01/22 08:44:57;;;;;;;0.97;0.97;;;-5.90;99.90;;;;;;5116458;28;20282;-76
2023/01/22 08:47:23;;;;;;;2.40;1.70;;;-5.90;99.90;;;;;;5118021;28;20274;-75
2023/01/22 08:49:49;;;;;;;0.77;0.77;;;-6.00;99.90;;;;;;5117684;28;20200;-74
2023/01/22 08:52:17;;;;;;;0.90;0.90;;;-5.90;99.90;;;;;;5118405;28;20262;-75
2023/01/22 08:54:43;;;;;;;0.90;0.90;;;-5.90;99.90;;;;;;5120209;28;20263;-75
2023/01/22 08:57:09;;;;;;;0.80;0.80;;;-5.80;99.90;;;;;;5119382;28;20195;-75
2023/01/22 08:59:34;;;;;;;0.90;0.90;;;-5.80;99.90;;;;;;5120542;28;20224;-76
2023/01/22 09:02:00;;;;;;;0.87;0.87;;;-5.80;99.90;;;;;;5119540;28;20252;-75
2023/01/22 09:04:27;;;;;;;0.83;0.83;;;-5.80;99.90;;;;;;5120870;28;20288;-76
2023/01/22 09:06:53;;;;;;;0.80;0.80;;;-5.70;99.90;;;;;;5118293;28;20570;-75
2023/01/22 09:09:19;;;;;;;2.20;2.00;;;-5.60;99.90;;;;;;5121802;28;20202;-74
2023/01/22 09:11:45;;;;;;;0.70;0.70;;;-5.70;99.90;;;;;;5120709;28;20203;-74
2023/01/22 09:14:11;;;;;;;0.80;0.80;;;-5.60;99.90;;;;;;5119940;28;20207;-76
2023/01/22 09:16:38;;;;;;;0.80;0.80;;;-5.60;99.90;;;;;;5114881;28;20207;-76
2023/01/22 09:19:04;;;;;;;0.87;0.87;;;-5.50;99.90;;;;;;5116564;28;20586;-75
2023/01/22 09:21:30;;;;;;;1.90;1.43;;;-5.50;99.90;;;;;;5117639;28;20196;-75
2023/01/22 09:23:55;;;;;;;0.80;0.80;;;-5.60;99.90;;;;;;5117377;28;20264;-75
2023/01/22 09:26:21;;;;;;;0.97;0.97;;;-5.60;99.90;;;;;;5116732;28;20666;-76
2023/01/22 09:28:47;;;;;;;1.40;1.30;;;-5.60;99.90;;;;;;5116786;28;20230;-75
2023/01/22 09:31:13;;;;;;;0.80;0.80;;;-5.60;99.90;;;;;;5117972;28;20737;-75
2023/01/22 09:33:39;;;;;;;0.70;0.70;;;-5.60;99.90;;;;;;5116765;28;20265;-73
2023/01/22 09:36:13;;;;;;;0.80;0.80;;;-5.60;99.90;;;;;;5114844;28;20196;-74
2023/01/22 09:38:39;;;;;;;1.33;1.23;;;-5.60;99.90;;;;;;5114648;28;20209;-74
2023/01/22 09:41:25;;;;;;;1.30;1.20;;;-5.60;99.90;;;;;;5115260;28;20188;-72
2023/01/22 09:43:57;;;;;;;0.80;0.80;;;-5.60;99.90;;;;;;5113996;28;20199;-74
2023/01/22 09:46:58;;;;;;;0.80;0.80;;;-5.50;99.90;;;;;;5115606;28;20192;-72
2023/01/22 09:49:30;;;;;;;0.80;0.80;;;-5.40;99.90;;;;;;5106414;28;20215;-74
2023/01/22 09:51:59;;;;;;;0.87;0.87;;;-5.30;99.90;;;;;;5115911;28;20575;-76
2023/01/22 09:54:27;;;;;;;1.00;1.00;;;-5.30;99.90;;;;;;5115377;28;20720;-75
2023/01/22 09:56:56;;;;;;;1.23;1.17;;;-5.30;99.90;;;;;;5115760;28;20275;-76
2023/01/22 09:59:31;;;;;;;0.87;0.87;;;-5.30;99.90;;;;;;5115245;28;20207;-75
2023/01/22 10:02:02;;;;;;;5.90;3.17;;;-5.40;99.90;;;;;;5115427;28;20223;-76
2023/01/22 10:04:36;;;;;;;0.73;0.73;;;-5.30;99.90;;;;;;5114845;28;20235;-77
2023/01/22 10:07:06;;;;;;;1.37;1.10;;;-5.20;99.90;;;;;;5115311;28;20198;-76
2023/01/22 10:09:33;;;;;;;0.70;0.70;;;-5.40;99.90;;;;;;5113521;28;20203;-76
2023/01/22 10:12:08;;;;;;;1.37;1.27;;;-5.40;99.90;;;;;;5115539;28;20210;-74
2023/01/22 10:14:34;;;;;;;0.80;0.80;;;-5.40;99.90;;;;;;5114827;28;20621;-76
2023/01/22 10:17:02;;;;;;;0.80;0.80;;;-5.30;99.90;;;;;;5113883;28;20282;-76
2023/01/22 10:19:35;;;;;;;0.70;0.70;;;-5.20;99.90;;;;;;5115293;28;20197;-77
2023/01/22 10:22:10;;;;;;;0.80;0.80;;;-5.20;99.90;;;;;;5115325;28;20252;-75
2023/01/22 10:24:36;;;;;;;0.80;0.80;;;-5.10;99.90;;;;;;5114855;28;20252;-75
2023/01/22 10:27:21;;;;;;;0.80;0.80;;;-5.10;99.90;;;;;;5115020;28;20204;-75
2023/01/22 10:30:13;;;;;;;0.70;0.70;;;-5.10;99.90;;;;;;5114983;28;20208;-74
2023/01/22 10:32:39;;;;;;;0.70;0.70;;;-5.10;99.90;;;;;;5113702;28;20294;-75
2023/01/22 10:35:17;;;;;;;0.70;0.70;;;-5.10;99.90;;;;;;5111992;28;20287;-74
2023/01/22 10:37:47;;;;;;;1.00;1.00;;;-5.10;99.90;;;;;;5111733;28;20245;-75
2023/01/22 10:40:37;;;;;;;0.80;0.80;;;-5.10;99.90;;;;;;5112888;28;20331;-77
2023/01/22 10:43:09;;;;;;;0.88;0.85;;;-5.10;99.90;;;;;;5114665;28;20654;-76
2023/01/22 10:45:35;;;;;;;0.82;0.82;;;-5.10;99.90;;;;;;5112718;28;20199;-76
2023/01/22 10:48:11;;;;;;;0.83;0.83;;;-5.10;99.90;;;;;;5113809;28;20681;-74
2023/01/22 10:50:36;;;;;;;0.90;0.90;;;-5.20;99.90;;;;;;5114034;28;20210;-74
2023/01/22 10:53:06;;;;;;;0.80;0.80;;;-5.20;99.90;;;;;;5114491;28;20207;-74
2023/01/22 10:55:36;;;;;;;0.73;0.73;;;-5.10;99.90;;;;;;5115057;28;20206;-75
2023/01/22 10:58:06;;;;;;;0.80;0.80;;;-4.90;99.90;;;;;;5114733;28;20524;-74
2023/01/22 11:00:35;;;;;;;0.70;0.70;;;-4.70;99.90;;;;;;5112923;28;20542;-78
2023/01/22 11:03:12;;;;;;;0.70;0.70;;;-4.60;99.90;;;;;;5113196;28;20260;-75
2023/01/22 11:05:42;;;;;;;1.63;1.53;;;-4.80;99.90;;;;;;5080132;28;20805;-74
2023/01/22 11:08:14;;;;;;;0.90;0.90;;;-4.70;99.90;;;;;;5075642;28;20721;-73
2023/01/22 11:10:50;;;;;;;0.80;0.80;;;-4.70;99.90;;;;;;5092716;28;20215;-73
2023/01/22 11:13:41;;;;;;;0.80;0.80;;;-4.60;99.90;;;;;;5074394;28;20693;-73
2023/01/22 11:16:15;;;;;;;0.80;0.80;;;-4.70;99.90;;;;;;5093793;28;20312;-74
2023/01/22 11:18:54;;;;;;;0.80;0.80;;;-4.70;99.90;;;;;;5067134;28;20569;-74
2023/01/22 11:21:50;;;;;;;0.83;0.83;;;-4.60;99.90;;;;;;5074058;28;20196;-75
2023/01/22 11:24:36;;;;;;;0.93;0.93;;;-4.70;99.90;;;;;;5093665;28;20199;-75
2023/01/22 11:27:20;;;;;;;0.93;0.93;;;-4.70;99.90;;;;;;5075605;28;20685;-75
2023/01/22 11:30:13;;;;;;;0.80;0.80;;;-4.80;99.90;;;;;;5093574;28;20554;-76
2023/01/22 11:33:01;;;;;;;0.77;0.77;;;-4.70;99.90;;;;;;5093110;28;20200;-74
2023/01/22 11:35:39;;;;;;;0.93;0.93;;;-4.70;99.90;;;;;;5074820;28;20674;-76
2023/01/22 11:38:20;;;;;;;0.80;0.80;;;-4.60;99.90;;;;;;5093270;28;20196;-75
2023/01/22 11:41:00;;;;;;;0.82;0.82;;;-4.60;99.90;;;;;;5093204;28;20420;-76
2023/01/22 11:43:55;;;;;;;0.70;0.70;;;-4.50;99.90;;;;;;5075064;28;20569;-76
2023/01/22 11:46:41;;;;;;;0.80;0.80;;;-4.60;99.90;;;;;;5075217;28;20208;-75
2023/01/22 11:49:51;;;;;;;0.67;0.67;;;-4.60;99.90;;;;;;5072493;28;20236;-75
2023/01/22 11:52:45;;;;;;;0.80;0.80;;;-4.50;99.90;;;;;;5088730;28;20195;-76
2023/01/22 11:55:22;;;;;;;1.33;1.00;;;-4.50;99.90;;;;;;5075242;28;20203;-74
2023/01/22 11:58:13;;;;;;;0.80;0.80;;;-4.40;99.90;;;;;;5093334;28;20188;-75
2023/01/22 12:00:45;;;;;;;0.90;0.90;;;-4.40;99.90;;;;;;5092914;28;20323;-75
2023/01/22 12:03:29;;;;;;;0.70;0.70;;;-4.30;99.90;;;;;;5076758;28;20247;-76
2023/01/22 12:06:13;;;;;;;1.27;1.03;;;-4.30;99.90;;;;;;5075339;28;20232;-76
2023/01/22 12:08:56;;;;;;;0.80;0.80;;;-4.40;99.90;;;;;;5058744;28;20205;-75
2023/01/22 12:11:43;;;;;;;0.73;0.73;;;-4.60;99.90;;;;;;5094606;28;20215;-75
2023/01/22 12:14:11;;;;;;;1.25;1.15;;;-4.70;99.90;;;;;;5078583;28;20216;-75
2023/01/22 12:16:47;;;;;;;0.80;0.80;;;-4.70;99.90;;;;;;5096563;28;20192;-75
2023/01/22 12:19:18;;;;;;;0.70;0.70;;;-4.70;99.90;;;;;;5081996;28;20219;-75
2023/01/22 12:21:59;;;;;;;0.70;0.70;;;-4.60;99.90;;;;;;5076668;28;20201;-76
2023/01/22 12:24:38;;;;;;;0.80;0.80;;;-4.60;99.90;;;;;;5076703;28;20219;-73
2023/01/22 12:27:41;;;;;;;0.80;0.80;;;-4.70;99.90;;;;;;5058913;28;20686;-72
2023/01/22 12:30:26;;;;;;;0.80;0.80;;;-4.90;99.90;;;;;;5075496;28;20204;-76
2023/01/22 12:33:00;;;;;;;0.88;0.88;;;-5.00;99.90;;;;;;5076990;28;20204;-75
2023/01/22 12:35:30;;;;;;;0.70;0.70;;;-4.90;99.90;;;;;;5058855;28;20204;-75
2023/01/22 12:38:21;;;;;;;0.70;0.70;;;-4.80;99.90;;;;;;5075540;28;20317;-75
2023/01/22 12:40:53;;;;;;;0.80;0.80;;;-4.70;99.90;;;;;;5076413;28;20200;-75
2023/01/22 12:43:27;;;;;;;0.80;0.80;;;-4.70;99.90;;;;;;5076203;28;20561;-75
2023/01/22 12:46:20;;;;;;;0.77;0.77;;;-4.60;99.90;;;;;;5076628;28;20222;-75
2023/01/22 12:49:24;;;;;;;0.80;0.80;;;-4.70;99.90;;;;;;5076052;28;20222;-76
2023/01/22 12:51:52;;;;;;;0.73;0.73;;;-4.70;99.90;;;;;;5062458;28;20294;-75
2023/01/22 12:54:19;;;;;;;0.70;0.70;;;-4.70;99.90;;;;;;5096450;28;20206;-75
2023/01/22 12:56:47;;;;;;;0.80;0.80;;;-4.60;99.90;;;;;;5096440;28;20192;-76
2023/01/22 12:59:52;;;;;;;0.80;0.80;;;-4.70;99.90;;;;;;5096356;28;20196;-76
2023/01/22 13:02:37;;;;;;;0.80;0.80;;;-4.80;99.90;;;;;;5017082;28;20225;-76
2023/01/22 13:05:36;;;;;;;0.90;0.90;;;-4.80;99.90;;;;;;5058623;28;20245;-76
2023/01/22 13:08:02;;;;;;;0.80;0.80;;;-4.70;99.90;;;;;;5088968;28;20666;-76
2023/01/22 13:10:31;;;;;;;0.80;0.80;;;-4.70;99.90;;;;;;5094236;28;20231;-75